sensor_id;sensor_type;location;lat;lon;timestamp;P1;durP1;ratioP1;P2;durP2;ratioP2
19205;SDS011;59358;52.134;5.596;2022-11-20T00:00:48;56.15;;;28.58;;
19205;SDS011;59358;52.134;5.596;2022-11-20T00:03:15;55.05;;;28.13;;
19205;SDS011;59358;52.134;5.596;2022-11-20T00:05:43;57.53;;;27.95;;
19205;SDS011;59358;52.134;5.596;2022-11-20T00:08:10;61.13;;;27.63;;
19205;SDS011;59358;52.134;5.596;2022-11-20T00:10:37;51.50;;;24.85;;
19205;SDS011;59358;52.134;5.596;2022-11-20T00:13:06;44.88;;;23.35;;
19205;SDS011;59358;52.134;5.596;2022-11-20T00:15:33;51.70;;;24.77;;
19205;SDS011;59358;52.134;5.596;2022-11-20T00:18:00;52.33;;;25.02;;
19205;SDS011;59358;52.134;5.596;2022-11-20T00:20:27;45.63;;;23.33;;
19205;SDS011;59358;52.134;5.596;2022-11-20T00:22:54;48.47;;;21.98;;
19205;SDS011;59358;52.134;5.596;2022-11-20T00:25:20;42.50;;;20.35;;
19205;SDS011;59358;52.134;5.596;2022-11-20T00:27:47;44.67;;;20.25;;
19205;SDS011;59358;52.134;5.596;2022-11-20T00:30:15;38.88;;;20.55;;
19205;SDS011;59358;52.134;5.596;2022-11-20T00:32:42;43.10;;;21.10;;
19205;SDS011;59358;52.134;5.596;2022-11-20T00:35:09;39.40;;;21.20;;
19205;SDS011;59358;52.134;5.596;2022-11-20T00:37:36;44.42;;;22.38;;
19205;SDS011;59358;52.134;5.596;2022-11-20T00:40:03;45.65;;;22.95;;
19205;SDS011;59358;52.134;5.596;2022-11-20T00:42:31;45.17;;;22.40;;
19205;SDS011;59358;52.134;5.596;2022-11-20T00:44:58;40.85;;;21.17;;
19205;SDS011;59358;52.134;5.596;2022-11-20T00:47:27;46.90;;;23.77;;
19205;SDS011;59358;52.134;5.596;2022-11-20T00:49:53;40.00;;;22.08;;
19205;SDS011;59358;52.134;5.596;2022-11-20T00:52:20;41.42;;;21.02;;
19205;SDS011;59358;52.134;5.596;2022-11-20T00:54:47;39.95;;;19.00;;
19205;SDS011;59358;52.134;5.596;2022-11-20T00:57:14;42.65;;;22.65;;
19205;SDS011;59358;52.134;5.596;2022-11-20T00:59:40;38.85;;;20.83;;
19205;SDS011;59358;52.134;5.596;2022-11-20T01:02:07;37.45;;;19.52;;
19205;SDS011;59358;52.134;5.596;2022-11-20T01:04:35;40.33;;;19.92;;
19205;SDS011;59358;52.134;5.596;2022-11-20T01:07:02;35.38;;;18.95;;
19205;SDS011;59358;52.134;5.596;2022-11-20T01:09:29;31.75;;;17.83;;
19205;SDS011;59358;52.134;5.596;2022-11-20T01:11:56;30.35;;;16.98;;
19205;SDS011;59358;52.134;5.596;2022-11-20T01:14:24;39.92;;;17.90;;
19205;SDS011;59358;52.134;5.596;2022-11-20T01:16:51;35.03;;;18.13;;
19205;SDS011;59358;52.134;5.596;2022-11-20T01:19:19;35.65;;;20.80;;
19205;SDS011;59358;52.134;5.596;2022-11-20T01:21:49;41.13;;;22.20;;
19205;SDS011;59358;52.134;5.596;2022-11-20T01:24:18;38.25;;;20.17;;
19205;SDS011;59358;52.134;5.596;2022-11-20T01:26:48;33.38;;;17.83;;
19205;SDS011;59358;52.134;5.596;2022-11-20T01:29:16;35.88;;;18.40;;
19205;SDS011;59358;52.134;5.596;2022-11-20T01:31:45;36.00;;;17.30;;
19205;SDS011;59358;52.134;5.596;2022-11-20T01:34:13;36.88;;;18.10;;
19205;SDS011;59358;52.134;5.596;2022-11-20T01:36:41;31.48;;;17.05;;
19205;SDS011;59358;52.134;5.596;2022-11-20T01:39:11;34.67;;;18.42;;
19205;SDS011;59358;52.134;5.596;2022-11-20T01:41:39;31.90;;;16.42;;
19205;SDS011;59358;52.134;5.596;2022-11-20T01:47:19;27.65;;;16.15;;
19205;SDS011;59358;52.134;5.596;2022-11-20T01:49:52;31.05;;;16.17;;
19205;SDS011;59358;52.134;5.596;2022-11-20T01:52:24;31.60;;;17.17;;
19205;SDS011;59358;52.134;5.596;2022-11-20T01:54:56;31.10;;;16.52;;
19205;SDS011;59358;52.134;5.596;2022-11-20T01:57:25;31.80;;;16.38;;
19205;SDS011;59358;52.134;5.596;2022-11-20T01:59:55;33.10;;;17.02;;
19205;SDS011;59358;52.134;5.596;2022-11-20T02:02:26;30.02;;;15.52;;
19205;SDS011;59358;52.134;5.596;2022-11-20T02:04:54;29.30;;;16.10;;
19205;SDS011;59358;52.134;5.596;2022-11-20T02:07:25;31.02;;;15.85;;
19205;SDS011;59358;52.134;5.596;2022-11-20T02:09:52;30.02;;;16.23;;
19205;SDS011;59358;52.134;5.596;2022-11-20T02:12:20;31.10;;;15.38;;
19205;SDS011;59358;52.134;5.596;2022-11-20T02:15:05;32.72;;;16.83;;
19205;SDS011;59358;52.134;5.596;2022-11-20T02:17:32;30.23;;;16.75;;
19205;SDS011;59358;52.134;5.596;2022-11-20T02:19:59;32.40;;;15.88;;
19205;SDS011;59358;52.134;5.596;2022-11-20T02:22:27;29.55;;;16.15;;
19205;SDS011;59358;52.134;5.596;2022-11-20T02:25:00;30.08;;;16.27;;
19205;SDS011;59358;52.134;5.596;2022-11-20T02:27:29;31.83;;;15.77;;
19205;SDS011;59358;52.134;5.596;2022-11-20T02:29:57;33.13;;;16.05;;
19205;SDS011;59358;52.134;5.596;2022-11-20T02:32:27;30.88;;;15.60;;
19205;SDS011;59358;52.134;5.596;2022-11-20T02:34:55;28.83;;;15.27;;
19205;SDS011;59358;52.134;5.596;2022-11-20T02:37:22;29.75;;;14.82;;
19205;SDS011;59358;52.134;5.596;2022-11-20T02:39:55;27.60;;;15.38;;
19205;SDS011;59358;52.134;5.596;2022-11-20T02:42:23;27.08;;;14.05;;
19205;SDS011;59358;52.134;5.596;2022-11-20T02:44:50;26.30;;;14.50;;
19205;SDS011;59358;52.134;5.596;2022-11-20T02:47:17;31.65;;;16.00;;
19205;SDS011;59358;52.134;5.596;2022-11-20T02:49:44;30.00;;;15.45;;
19205;SDS011;59358;52.134;5.596;2022-11-20T02:52:10;30.55;;;15.32;;
19205;SDS011;59358;52.134;5.596;2022-11-20T02:54:37;28.35;;;15.48;;
19205;SDS011;59358;52.134;5.596;2022-11-20T02:57:04;29.05;;;15.00;;
19205;SDS011;59358;52.134;5.596;2022-11-20T02:59:33;26.17;;;14.48;;
19205;SDS011;59358;52.134;5.596;2022-11-20T03:02:00;31.35;;;15.98;;
19205;SDS011;59358;52.134;5.596;2022-11-20T03:04:27;32.70;;;16.33;;
19205;SDS011;59358;52.134;5.596;2022-11-20T03:06:54;28.17;;;15.30;;
19205;SDS011;59358;52.134;5.596;2022-11-20T03:09:21;32.45;;;16.42;;
19205;SDS011;59358;52.134;5.596;2022-11-20T03:11:47;26.25;;;14.88;;
19205;SDS011;59358;52.134;5.596;2022-11-20T03:14:14;31.83;;;16.98;;
19205;SDS011;59358;52.134;5.596;2022-11-20T03:16:43;29.85;;;16.10;;
19205;SDS011;59358;52.134;5.596;2022-11-20T03:19:10;29.58;;;16.17;;
19205;SDS011;59358;52.134;5.596;2022-11-20T03:21:37;32.38;;;16.10;;
19205;SDS011;59358;52.134;5.596;2022-11-20T03:24:04;30.23;;;15.90;;
19205;SDS011;59358;52.134;5.596;2022-11-20T03:26:31;31.77;;;16.90;;
19205;SDS011;59358;52.134;5.596;2022-11-20T03:28:59;33.15;;;18.20;;
19205;SDS011;59358;52.134;5.596;2022-11-20T03:31:29;33.20;;;16.77;;
19205;SDS011;59358;52.134;5.596;2022-11-20T03:33:58;31.92;;;17.55;;
19205;SDS011;59358;52.134;5.596;2022-11-20T03:36:26;32.70;;;17.63;;
19205;SDS011;59358;52.134;5.596;2022-11-20T03:38:53;35.70;;;17.75;;
19205;SDS011;59358;52.134;5.596;2022-11-20T03:41:21;36.92;;;18.85;;
19205;SDS011;59358;52.134;5.596;2022-11-20T03:43:49;33.33;;;18.05;;
19205;SDS011;59358;52.134;5.596;2022-11-20T03:46:17;36.40;;;18.38;;
19205;SDS011;59358;52.134;5.596;2022-11-20T03:48:44;37.47;;;17.92;;
19205;SDS011;59358;52.134;5.596;2022-11-20T03:51:13;39.95;;;18.77;;
19205;SDS011;59358;52.134;5.596;2022-11-20T03:53:41;35.53;;;17.55;;
19205;SDS011;59358;52.134;5.596;2022-11-20T03:56:10;34.45;;;17.83;;
19205;SDS011;59358;52.134;5.596;2022-11-20T03:58:38;34.20;;;16.52;;
19205;SDS011;59358;52.134;5.596;2022-11-20T04:01:06;35.47;;;17.92;;
19205;SDS011;59358;52.134;5.596;2022-11-20T04:03:33;31.83;;;17.75;;
19205;SDS011;59358;52.134;5.596;2022-11-20T04:06:02;31.35;;;17.17;;
19205;SDS011;59358;52.134;5.596;2022-11-20T04:08:31;31.58;;;16.00;;
19205;SDS011;59358;52.134;5.596;2022-11-20T04:11:07;33.90;;;17.63;;
19205;SDS011;59358;52.134;5.596;2022-11-20T04:13:38;37.45;;;18.30;;
19205;SDS011;59358;52.134;5.596;2022-11-20T04:16:06;34.03;;;16.73;;
19205;SDS011;59358;52.134;5.596;2022-11-20T04:18:33;32.30;;;15.75;;
19205;SDS011;59358;52.134;5.596;2022-11-20T04:21:00;32.35;;;16.70;;
19205;SDS011;59358;52.134;5.596;2022-11-20T04:23:28;32.90;;;16.77;;
19205;SDS011;59358;52.134;5.596;2022-11-20T04:25:59;36.75;;;17.75;;
19205;SDS011;59358;52.134;5.596;2022-11-20T04:28:27;36.08;;;17.08;;
19205;SDS011;59358;52.134;5.596;2022-11-20T04:30:54;32.78;;;16.30;;
19205;SDS011;59358;52.134;5.596;2022-11-20T04:33:27;33.28;;;16.98;;
19205;SDS011;59358;52.134;5.596;2022-11-20T04:35:53;36.30;;;16.90;;
19205;SDS011;59358;52.134;5.596;2022-11-20T04:38:20;33.13;;;16.58;;
19205;SDS011;59358;52.134;5.596;2022-11-20T04:40:47;38.05;;;18.77;;
19205;SDS011;59358;52.134;5.596;2022-11-20T04:43:15;35.05;;;17.67;;
19205;SDS011;59358;52.134;5.596;2022-11-20T04:45:42;33.60;;;17.30;;
19205;SDS011;59358;52.134;5.596;2022-11-20T04:48:08;33.17;;;16.70;;
19205;SDS011;59358;52.134;5.596;2022-11-20T04:50:39;35.67;;;18.08;;
19205;SDS011;59358;52.134;5.596;2022-11-20T04:53:06;35.17;;;17.88;;
19205;SDS011;59358;52.134;5.596;2022-11-20T04:55:33;34.28;;;18.10;;
19205;SDS011;59358;52.134;5.596;2022-11-20T04:57:59;43.30;;;18.55;;
19205;SDS011;59358;52.134;5.596;2022-11-20T05:00:27;40.88;;;19.63;;
19205;SDS011;59358;52.134;5.596;2022-11-20T05:02:54;34.65;;;18.13;;
19205;SDS011;59358;52.134;5.596;2022-11-20T05:05:21;39.33;;;19.70;;
19205;SDS011;59358;52.134;5.596;2022-11-20T05:07:48;32.03;;;17.40;;
19205;SDS011;59358;52.134;5.596;2022-11-20T05:10:15;38.15;;;19.02;;
19205;SDS011;59358;52.134;5.596;2022-11-20T05:12:42;42.05;;;20.63;;
19205;SDS011;59358;52.134;5.596;2022-11-20T05:15:09;40.65;;;19.02;;
19205;SDS011;59358;52.134;5.596;2022-11-20T05:17:37;39.83;;;19.13;;
19205;SDS011;59358;52.134;5.596;2022-11-20T05:20:04;35.50;;;17.90;;
19205;SDS011;59358;52.134;5.596;2022-11-20T05:22:32;36.17;;;17.88;;
19205;SDS011;59358;52.134;5.596;2022-11-20T05:24:58;37.55;;;18.63;;
19205;SDS011;59358;52.134;5.596;2022-11-20T05:27:25;34.20;;;16.67;;
19205;SDS011;59358;52.134;5.596;2022-11-20T05:29:52;33.40;;;18.05;;
19205;SDS011;59358;52.134;5.596;2022-11-20T05:32:18;34.42;;;17.88;;
19205;SDS011;59358;52.134;5.596;2022-11-20T05:34:47;33.70;;;19.08;;
19205;SDS011;59358;52.134;5.596;2022-11-20T05:37:14;36.25;;;18.17;;
19205;SDS011;59358;52.134;5.596;2022-11-20T05:39:40;34.15;;;17.02;;
19205;SDS011;59358;52.134;5.596;2022-11-20T05:42:07;34.83;;;18.27;;
19205;SDS011;59358;52.134;5.596;2022-11-20T05:44:52;46.55;;;21.67;;
19205;SDS011;59358;52.134;5.596;2022-11-20T05:47:19;35.90;;;18.95;;
19205;SDS011;59358;52.134;5.596;2022-11-20T05:49:47;45.33;;;19.55;;
19205;SDS011;59358;52.134;5.596;2022-11-20T05:52:14;39.00;;;18.27;;
19205;SDS011;59358;52.134;5.596;2022-11-20T05:54:40;38.28;;;17.65;;
19205;SDS011;59358;52.134;5.596;2022-11-20T05:57:07;35.08;;;18.40;;
19205;SDS011;59358;52.134;5.596;2022-11-20T05:59:34;39.80;;;19.92;;
19205;SDS011;59358;52.134;5.596;2022-11-20T06:02:01;36.28;;;17.55;;
19205;SDS011;59358;52.134;5.596;2022-11-20T06:04:28;34.90;;;18.08;;
19205;SDS011;59358;52.134;5.596;2022-11-20T06:06:56;36.22;;;16.88;;
19205;SDS011;59358;52.134;5.596;2022-11-20T06:09:23;32.70;;;17.05;;
19205;SDS011;59358;52.134;5.596;2022-11-20T06:11:50;35.20;;;16.75;;
19205;SDS011;59358;52.134;5.596;2022-11-20T06:14:17;34.40;;;17.08;;
19205;SDS011;59358;52.134;5.596;2022-11-20T06:16:44;39.03;;;18.42;;
19205;SDS011;59358;52.134;5.596;2022-11-20T06:19:10;32.75;;;17.75;;
19205;SDS011;59358;52.134;5.596;2022-11-20T06:21:37;33.63;;;16.48;;
19205;SDS011;59358;52.134;5.596;2022-11-20T06:24:06;39.47;;;18.45;;
19205;SDS011;59358;52.134;5.596;2022-11-20T06:26:34;38.33;;;17.92;;
19205;SDS011;59358;52.134;5.596;2022-11-20T06:29:01;34.25;;;18.30;;
19205;SDS011;59358;52.134;5.596;2022-11-20T06:31:28;35.17;;;18.13;;
19205;SDS011;59358;52.134;5.596;2022-11-20T06:33:57;38.80;;;17.95;;
19205;SDS011;59358;52.134;5.596;2022-11-20T06:36:24;38.15;;;18.33;;
19205;SDS011;59358;52.134;5.596;2022-11-20T06:38:51;34.95;;;17.58;;
19205;SDS011;59358;52.134;5.596;2022-11-20T06:41:20;40.75;;;20.35;;
19205;SDS011;59358;52.134;5.596;2022-11-20T06:43:47;47.55;;;20.33;;
19205;SDS011;59358;52.134;5.596;2022-11-20T06:46:16;37.65;;;18.52;;
19205;SDS011;59358;52.134;5.596;2022-11-20T06:48:44;40.47;;;17.83;;
19205;SDS011;59358;52.134;5.596;2022-11-20T06:51:11;37.45;;;18.30;;
19205;SDS011;59358;52.134;5.596;2022-11-20T06:53:38;40.17;;;18.50;;
19205;SDS011;59358;52.134;5.596;2022-11-20T06:56:05;35.58;;;18.25;;
19205;SDS011;59358;52.134;5.596;2022-11-20T06:58:34;33.38;;;17.45;;
19205;SDS011;59358;52.134;5.596;2022-11-20T07:01:02;43.30;;;18.40;;
19205;SDS011;59358;52.134;5.596;2022-11-20T07:03:30;44.13;;;19.13;;
19205;SDS011;59358;52.134;5.596;2022-11-20T07:05:57;37.70;;;17.65;;
19205;SDS011;59358;52.134;5.596;2022-11-20T07:08:26;33.38;;;16.10;;
19205;SDS011;59358;52.134;5.596;2022-11-20T07:10:56;37.15;;;18.10;;
19205;SDS011;59358;52.134;5.596;2022-11-20T07:13:24;37.38;;;17.58;;
19205;SDS011;59358;52.134;5.596;2022-11-20T07:15:52;39.58;;;18.90;;
19205;SDS011;59358;52.134;5.596;2022-11-20T07:18:20;38.13;;;17.90;;
19205;SDS011;59358;52.134;5.596;2022-11-20T07:20:47;35.70;;;17.92;;
19205;SDS011;59358;52.134;5.596;2022-11-20T07:23:13;36.08;;;17.67;;
19205;SDS011;59358;52.134;5.596;2022-11-20T07:25:40;31.27;;;17.23;;
19205;SDS011;59358;52.134;5.596;2022-11-20T07:28:07;31.88;;;17.85;;
19205;SDS011;59358;52.134;5.596;2022-11-20T07:30:35;33.65;;;15.93;;
19205;SDS011;59358;52.134;5.596;2022-11-20T07:33:04;29.88;;;17.05;;
19205;SDS011;59358;52.134;5.596;2022-11-20T07:35:31;37.60;;;17.58;;
19205;SDS011;59358;52.134;5.596;2022-11-20T07:37:58;37.45;;;17.60;;
19205;SDS011;59358;52.134;5.596;2022-11-20T07:40:25;32.85;;;16.80;;
19205;SDS011;59358;52.134;5.596;2022-11-20T07:42:52;34.67;;;18.05;;
19205;SDS011;59358;52.134;5.596;2022-11-20T07:45:21;34.63;;;17.63;;
19205;SDS011;59358;52.134;5.596;2022-11-20T07:47:49;33.83;;;17.30;;
19205;SDS011;59358;52.134;5.596;2022-11-20T07:50:18;32.25;;;17.10;;
19205;SDS011;59358;52.134;5.596;2022-11-20T07:52:45;32.70;;;17.08;;
19205;SDS011;59358;52.134;5.596;2022-11-20T07:55:12;38.30;;;18.70;;
19205;SDS011;59358;52.134;5.596;2022-11-20T07:57:39;34.88;;;18.42;;
19205;SDS011;59358;52.134;5.596;2022-11-20T08:00:07;37.90;;;19.83;;
19205;SDS011;59358;52.134;5.596;2022-11-20T08:02:36;34.90;;;19.00;;
19205;SDS011;59358;52.134;5.596;2022-11-20T08:05:05;36.00;;;19.83;;
19205;SDS011;59358;52.134;5.596;2022-11-20T08:07:36;37.70;;;20.10;;
19205;SDS011;59358;52.134;5.596;2022-11-20T08:10:04;39.28;;;22.33;;
19205;SDS011;59358;52.134;5.596;2022-11-20T08:12:31;47.22;;;22.73;;
19205;SDS011;59358;52.134;5.596;2022-11-20T08:15:15;40.17;;;22.52;;
19205;SDS011;59358;52.134;5.596;2022-11-20T08:17:42;36.50;;;20.73;;
19205;SDS011;59358;52.134;5.596;2022-11-20T08:20:09;45.25;;;23.42;;
19205;SDS011;59358;52.134;5.596;2022-11-20T08:22:40;42.20;;;21.65;;
19205;SDS011;59358;52.134;5.596;2022-11-20T08:25:07;41.72;;;21.95;;
19205;SDS011;59358;52.134;5.596;2022-11-20T08:27:34;43.35;;;22.55;;
19205;SDS011;59358;52.134;5.596;2022-11-20T08:30:01;45.50;;;22.10;;
19205;SDS011;59358;52.134;5.596;2022-11-20T08:32:29;43.80;;;23.05;;
19205;SDS011;59358;52.134;5.596;2022-11-20T08:34:56;46.15;;;23.67;;
19205;SDS011;59358;52.134;5.596;2022-11-20T08:37:22;40.72;;;23.33;;
19205;SDS011;59358;52.134;5.596;2022-11-20T08:39:51;44.53;;;23.80;;
19205;SDS011;59358;52.134;5.596;2022-11-20T08:42:18;42.90;;;23.60;;
19205;SDS011;59358;52.134;5.596;2022-11-20T08:44:45;50.05;;;24.25;;
19205;SDS011;59358;52.134;5.596;2022-11-20T08:47:12;42.47;;;23.67;;
19205;SDS011;59358;52.134;5.596;2022-11-20T08:49:39;48.33;;;26.40;;
19205;SDS011;59358;52.134;5.596;2022-11-20T08:52:06;48.90;;;26.65;;
19205;SDS011;59358;52.134;5.596;2022-11-20T08:54:32;53.33;;;30.20;;
19205;SDS011;59358;52.134;5.596;2022-11-20T08:57:01;48.53;;;28.38;;
19205;SDS011;59358;52.134;5.596;2022-11-20T08:59:27;48.42;;;27.80;;
19205;SDS011;59358;52.134;5.596;2022-11-20T09:01:55;48.83;;;27.25;;
19205;SDS011;59358;52.134;5.596;2022-11-20T09:04:23;47.97;;;27.52;;
19205;SDS011;59358;52.134;5.596;2022-11-20T09:06:50;47.92;;;26.58;;
19205;SDS011;59358;52.134;5.596;2022-11-20T09:09:17;50.30;;;26.83;;
19205;SDS011;59358;52.134;5.596;2022-11-20T09:11:44;47.75;;;26.73;;
19205;SDS011;59358;52.134;5.596;2022-11-20T09:14:12;47.60;;;28.05;;
19205;SDS011;59358;52.134;5.596;2022-11-20T09:16:39;50.20;;;28.88;;
19205;SDS011;59358;52.134;5.596;2022-11-20T09:19:06;47.53;;;28.20;;
19205;SDS011;59358;52.134;5.596;2022-11-20T09:21:33;47.13;;;28.38;;
19205;SDS011;59358;52.134;5.596;2022-11-20T09:24:00;50.15;;;28.73;;
19205;SDS011;59358;52.134;5.596;2022-11-20T09:26:26;53.10;;;31.02;;
19205;SDS011;59358;52.134;5.596;2022-11-20T09:28:53;56.17;;;31.63;;
19205;SDS011;59358;52.134;5.596;2022-11-20T09:31:23;49.08;;;27.85;;
19205;SDS011;59358;52.134;5.596;2022-11-20T09:33:50;48.60;;;28.00;;
19205;SDS011;59358;52.134;5.596;2022-11-20T09:36:18;47.88;;;25.30;;
19205;SDS011;59358;52.134;5.596;2022-11-20T09:38:44;46.83;;;25.30;;
19205;SDS011;59358;52.134;5.596;2022-11-20T09:41:19;43.67;;;26.23;;
19205;SDS011;59358;52.134;5.596;2022-11-20T09:44:17;41.63;;;24.58;;
19205;SDS011;59358;52.134;5.596;2022-11-20T09:46:54;42.50;;;24.67;;
19205;SDS011;59358;52.134;5.596;2022-11-20T09:49:28;45.50;;;25.30;;
19205;SDS011;59358;52.134;5.596;2022-11-20T09:52:05;43.42;;;24.20;;
19205;SDS011;59358;52.134;5.596;2022-11-20T09:54:42;44.67;;;26.20;;
19205;SDS011;59358;52.134;5.596;2022-11-20T09:57:10;45.30;;;25.70;;
19205;SDS011;59358;52.134;5.596;2022-11-20T09:59:40;43.03;;;26.35;;
19205;SDS011;59358;52.134;5.596;2022-11-20T10:02:18;45.78;;;26.33;;
19205;SDS011;59358;52.134;5.596;2022-11-20T10:04:53;49.67;;;27.25;;
19205;SDS011;59358;52.134;5.596;2022-11-20T10:07:27;42.83;;;25.58;;
19205;SDS011;59358;52.134;5.596;2022-11-20T10:09:59;45.75;;;27.08;;
19205;SDS011;59358;52.134;5.596;2022-11-20T10:12:27;40.40;;;24.40;;
19205;SDS011;59358;52.134;5.596;2022-11-20T10:15:10;41.65;;;25.42;;
19205;SDS011;59358;52.134;5.596;2022-11-20T10:17:55;41.70;;;23.77;;
19205;SDS011;59358;52.134;5.596;2022-11-20T10:20:32;41.97;;;24.70;;
19205;SDS011;59358;52.134;5.596;2022-11-20T10:26:12;42.35;;;24.38;;
19205;SDS011;59358;52.134;5.596;2022-11-20T10:28:51;44.13;;;25.48;;
19205;SDS011;59358;52.134;5.596;2022-11-20T10:31:28;41.08;;;25.60;;
19205;SDS011;59358;52.134;5.596;2022-11-20T10:34:00;50.75;;;29.30;;
19205;SDS011;59358;52.134;5.596;2022-11-20T10:36:33;58.60;;;33.80;;
19205;SDS011;59358;52.134;5.596;2022-11-20T10:39:05;61.08;;;33.85;;
19205;SDS011;59358;52.134;5.596;2022-11-20T10:41:48;54.08;;;29.80;;
19205;SDS011;59358;52.134;5.596;2022-11-20T10:44:19;55.08;;;30.27;;
19205;SDS011;59358;52.134;5.596;2022-11-20T10:47:03;52.20;;;30.13;;
19205;SDS011;59358;52.134;5.596;2022-11-20T10:49:32;45.50;;;27.17;;
19205;SDS011;59358;52.134;5.596;2022-11-20T10:52:02;44.25;;;26.83;;
19205;SDS011;59358;52.134;5.596;2022-11-20T10:54:38;42.40;;;25.25;;
19205;SDS011;59358;52.134;5.596;2022-11-20T10:57:13;43.33;;;25.95;;
19205;SDS011;59358;52.134;5.596;2022-11-20T11:00:04;40.35;;;25.77;;
19205;SDS011;59358;52.134;5.596;2022-11-20T11:02:34;42.35;;;26.10;;
19205;SDS011;59358;52.134;5.596;2022-11-20T11:05:10;45.38;;;25.77;;
19205;SDS011;59358;52.134;5.596;2022-11-20T11:07:43;43.03;;;25.67;;
19205;SDS011;59358;52.134;5.596;2022-11-20T11:10:14;43.47;;;25.52;;
19205;SDS011;59358;52.134;5.596;2022-11-20T11:12:43;39.15;;;23.85;;
19205;SDS011;59358;52.134;5.596;2022-11-20T11:15:12;41.28;;;24.35;;
19205;SDS011;59358;52.134;5.596;2022-11-20T11:17:50;44.92;;;26.63;;
19205;SDS011;59358;52.134;5.596;2022-11-20T11:20:19;47.35;;;27.63;;
19205;SDS011;59358;52.134;5.596;2022-11-20T11:22:48;44.25;;;27.48;;
19205;SDS011;59358;52.134;5.596;2022-11-20T11:25:20;44.90;;;27.60;;
19205;SDS011;59358;52.134;5.596;2022-11-20T11:27:50;48.85;;;26.70;;
19205;SDS011;59358;52.134;5.596;2022-11-20T11:30:18;43.60;;;26.10;;
19205;SDS011;59358;52.134;5.596;2022-11-20T11:32:47;43.58;;;26.58;;
19205;SDS011;59358;52.134;5.596;2022-11-20T11:35:23;49.10;;;27.45;;
19205;SDS011;59358;52.134;5.596;2022-11-20T11:37:52;45.72;;;27.00;;
19205;SDS011;59358;52.134;5.596;2022-11-20T11:44:14;47.47;;;27.58;;
19205;SDS011;59358;52.134;5.596;2022-11-20T11:47:19;45.80;;;27.00;;
19205;SDS011;59358;52.134;5.596;2022-11-20T11:50:00;42.60;;;23.63;;
19205;SDS011;59358;52.134;5.596;2022-11-20T11:52:29;44.90;;;26.95;;
19205;SDS011;59358;52.134;5.596;2022-11-20T11:55:02;44.05;;;26.50;;
19205;SDS011;59358;52.134;5.596;2022-11-20T11:57:37;44.42;;;25.05;;
19205;SDS011;59358;52.134;5.596;2022-11-20T12:00:10;42.67;;;25.83;;
19205;SDS011;59358;52.134;5.596;2022-11-20T12:02:43;45.60;;;26.42;;
19205;SDS011;59358;52.134;5.596;2022-11-20T12:05:20;44.92;;;25.92;;
19205;SDS011;59358;52.134;5.596;2022-11-20T12:07:52;42.22;;;24.95;;
19205;SDS011;59358;52.134;5.596;2022-11-20T12:10:23;44.13;;;25.33;;
19205;SDS011;59358;52.134;5.596;2022-11-20T12:15:58;42.72;;;26.02;;
19205;SDS011;59358;52.134;5.596;2022-11-20T12:18:26;39.70;;;25.42;;
19205;SDS011;59358;52.134;5.596;2022-11-20T12:20:57;42.83;;;25.80;;
19205;SDS011;59358;52.134;5.596;2022-11-20T12:23:34;47.75;;;26.67;;
19205;SDS011;59358;52.134;5.596;2022-11-20T12:26:15;44.08;;;25.23;;
19205;SDS011;59358;52.134;5.596;2022-11-20T12:28:54;42.92;;;25.50;;
19205;SDS011;59358;52.134;5.596;2022-11-20T12:31:35;43.42;;;25.83;;
19205;SDS011;59358;52.134;5.596;2022-11-20T12:34:10;41.80;;;25.50;;
19205;SDS011;59358;52.134;5.596;2022-11-20T12:36:47;46.97;;;26.63;;
19205;SDS011;59358;52.134;5.596;2022-11-20T12:45:30;44.90;;;27.20;;
19205;SDS011;59358;52.134;5.596;2022-11-20T12:48:18;42.97;;;26.20;;
19205;SDS011;59358;52.134;5.596;2022-11-20T12:54:24;43.05;;;26.13;;
19205;SDS011;59358;52.134;5.596;2022-11-20T12:57:09;46.45;;;26.15;;
19205;SDS011;59358;52.134;5.596;2022-11-20T12:59:51;47.50;;;25.83;;
19205;SDS011;59358;52.134;5.596;2022-11-20T13:02:28;48.50;;;28.23;;
19205;SDS011;59358;52.134;5.596;2022-11-20T13:05:05;43.70;;;27.13;;
19205;SDS011;59358;52.134;5.596;2022-11-20T13:07:44;40.85;;;25.00;;
19205;SDS011;59358;52.134;5.596;2022-11-20T13:10:14;44.80;;;26.50;;
19205;SDS011;59358;52.134;5.596;2022-11-20T13:12:48;49.97;;;28.50;;
19205;SDS011;59358;52.134;5.596;2022-11-20T13:15:23;44.90;;;27.05;;
19205;SDS011;59358;52.134;5.596;2022-11-20T13:18:02;49.20;;;28.13;;
19205;SDS011;59358;52.134;5.596;2022-11-20T13:20:34;52.10;;;31.10;;
19205;SDS011;59358;52.134;5.596;2022-11-20T13:23:02;51.83;;;29.02;;
19205;SDS011;59358;52.134;5.596;2022-11-20T13:25:29;55.17;;;31.38;;
19205;SDS011;59358;52.134;5.596;2022-11-20T13:28:00;51.72;;;30.95;;
19205;SDS011;59358;52.134;5.596;2022-11-20T13:30:29;51.53;;;29.73;;
19205;SDS011;59358;52.134;5.596;2022-11-20T13:32:58;54.15;;;29.45;;
19205;SDS011;59358;52.134;5.596;2022-11-20T13:35:33;56.15;;;30.80;;
19205;SDS011;59358;52.134;5.596;2022-11-20T13:38:05;57.42;;;31.23;;
19205;SDS011;59358;52.134;5.596;2022-11-20T13:40:35;54.08;;;32.72;;
19205;SDS011;59358;52.134;5.596;2022-11-20T13:43:19;56.95;;;33.20;;
19205;SDS011;59358;52.134;5.596;2022-11-20T13:45:56;54.67;;;32.03;;
19205;SDS011;59358;52.134;5.596;2022-11-20T13:48:26;56.30;;;31.92;;
19205;SDS011;59358;52.134;5.596;2022-11-20T13:53:54;60.47;;;32.92;;
19205;SDS011;59358;52.134;5.596;2022-11-20T13:56:34;56.05;;;32.28;;
19205;SDS011;59358;52.134;5.596;2022-11-20T13:59:12;55.53;;;33.38;;
19205;SDS011;59358;52.134;5.596;2022-11-20T14:01:50;56.83;;;33.22;;
19205;SDS011;59358;52.134;5.596;2022-11-20T14:04:19;58.22;;;33.45;;
19205;SDS011;59358;52.134;5.596;2022-11-20T14:06:52;58.40;;;31.88;;
19205;SDS011;59358;52.134;5.596;2022-11-20T14:09:26;59.55;;;34.70;;
19205;SDS011;59358;52.134;5.596;2022-11-20T14:11:54;58.70;;;33.08;;
19205;SDS011;59358;52.134;5.596;2022-11-20T14:14:23;59.38;;;32.97;;
19205;SDS011;59358;52.134;5.596;2022-11-20T14:16:51;60.58;;;34.13;;
19205;SDS011;59358;52.134;5.596;2022-11-20T14:19:23;60.75;;;34.00;;
19205;SDS011;59358;52.134;5.596;2022-11-20T14:21:54;62.95;;;33.55;;
19205;SDS011;59358;52.134;5.596;2022-11-20T14:24:33;60.25;;;34.17;;
19205;SDS011;59358;52.134;5.596;2022-11-20T14:26:59;61.42;;;33.72;;
19205;SDS011;59358;52.134;5.596;2022-11-20T14:29:29;62.60;;;35.28;;
19205;SDS011;59358;52.134;5.596;2022-11-20T14:32:00;63.92;;;36.63;;
19205;SDS011;59358;52.134;5.596;2022-11-20T14:34:29;64.03;;;35.05;;
19205;SDS011;59358;52.134;5.596;2022-11-20T14:36:59;63.20;;;32.70;;
19205;SDS011;59358;52.134;5.596;2022-11-20T14:39:28;63.15;;;33.55;;
19205;SDS011;59358;52.134;5.596;2022-11-20T14:41:59;67.68;;;35.20;;
19205;SDS011;59358;52.134;5.596;2022-11-20T14:44:26;66.57;;;35.05;;
19205;SDS011;59358;52.134;5.596;2022-11-20T14:46:57;62.50;;;34.35;;
19205;SDS011;59358;52.134;5.596;2022-11-20T14:49:26;67.72;;;37.10;;
19205;SDS011;59358;52.134;5.596;2022-11-20T14:51:58;67.32;;;36.97;;
19205;SDS011;59358;52.134;5.596;2022-11-20T14:54:26;72.18;;;38.95;;
19205;SDS011;59358;52.134;5.596;2022-11-20T14:56:55;71.80;;;38.95;;
19205;SDS011;59358;52.134;5.596;2022-11-20T14:59:23;71.57;;;36.78;;
19205;SDS011;59358;52.134;5.596;2022-11-20T15:01:57;75.70;;;39.92;;